createdAt,value
2019-04-21T00:01:53.879Z,39.44
2019-04-21T00:06:15.707Z,39.58
2019-04-21T00:10:36.441Z,39.90
2019-04-21T00:14:29.189Z,40.11
2019-04-21T00:18:55.776Z,40.05
2019-04-21T00:23:15.293Z,40.23
2019-04-21T00:27:22.948Z,39.98
2019-04-21T00:31:30.854Z,40.00
2019-04-21T00:35:25.771Z,40.24
2019-04-21T00:39:55.822Z,40.25
2019-04-21T00:43:55.426Z,39.90
2019-04-21T00:48:14.639Z,40.19
2019-04-21T00:52:39.604Z,40.40
2019-04-21T00:56:34.160Z,40.42
2019-04-21T01:00:46.354Z,40.23
2019-04-21T01:05:00.011Z,40.51
2019-04-21T01:08:59.006Z,40.94
2019-04-21T01:13:16.858Z,40.89
2019-04-21T01:17:19.244Z,41.17
2019-04-21T01:21:14.142Z,41.33
2019-04-21T01:25:22.933Z,41.36
2019-04-21T01:29:49.802Z,41.72
2019-04-21T01:33:50.752Z,41.94
2019-04-21T01:38:04.978Z,42.23
2019-04-21T01:42:12.633Z,42.25
2019-04-21T01:46:15.288Z,42.64
2019-04-21T01:50:21.073Z,42.68
2019-04-21T01:55:00.445Z,42.62
2019-04-21T01:58:57.310Z,43.06
2019-04-21T02:03:37.390Z,43.06
2019-04-21T02:07:27.461Z,43.08
2019-04-21T02:11:41.285Z,43.16
2019-04-21T02:15:46.998Z,43.30
2019-04-21T02:19:45.814Z,43.40
2019-04-21T02:24:05.113Z,43.34
2019-04-21T02:28:18.046Z,43.41
2019-04-21T02:32:33.414Z,43.61
2019-04-21T02:36:40.392Z,44.00
2019-04-21T02:40:47.325Z,43.98
2019-04-21T02:53:09.690Z,44.31
2019-04-21T02:57:18.606Z,44.52
2019-04-21T03:01:50.260Z,44.70
2019-04-21T03:06:10.522Z,44.91
2019-04-21T03:10:26.704Z,44.81
2019-04-21T03:18:39.927Z,44.94
2019-04-21T03:27:25.825Z,45.08
2019-04-21T03:39:24.232Z,45.46
2019-04-21T03:43:28.193Z,45.58
2019-04-21T03:47:39.675Z,45.55
2019-04-21T03:51:48.668Z,45.51
2019-04-21T04:00:21.929Z,46.17
2019-04-21T04:04:27.970Z,46.03
2019-04-21T04:08:50.186Z,46.46
2019-04-21T04:12:50.527Z,46.88
2019-04-21T04:21:16.842Z,47.42
2019-04-21T04:29:24.526Z,48.16
2019-04-21T04:37:46.625Z,48.75
2019-04-21T04:46:08.106Z,49.25
2019-04-21T04:50:24.379Z,48.92
2019-04-21T04:54:40.148Z,48.96
2019-04-21T05:02:46.331Z,49.14
2019-04-21T05:11:07.930Z,49.19
2019-04-21T05:15:10.009Z,49.18
2019-04-21T05:19:18.142Z,48.99
2019-04-21T05:23:19.365Z,49.11
2019-04-21T05:27:44.813Z,48.80
2019-04-21T05:32:22.943Z,48.63
2019-04-21T05:36:39.121Z,48.62
2019-04-21T05:40:41.408Z,48.48
2019-04-21T05:44:58.294Z,48.20
2019-04-21T05:49:02.901Z,48.38
2019-04-21T05:53:20.560Z,48.00
2019-04-21T05:57:23.881Z,47.70
2019-04-21T06:01:47.029Z,47.80
2019-04-21T06:05:54.438Z,47.43
2019-04-21T06:09:56.041Z,46.95
2019-04-21T06:14:04.652Z,46.98
2019-04-21T06:18:14.994Z,46.55
2019-04-21T06:22:13.858Z,46.89
2019-04-21T06:26:50.439Z,47.01
2019-04-21T06:30:42.580Z,46.63
2019-04-21T06:34:58.963Z,46.65
2019-04-21T06:43:11.354Z,46.14
2019-04-21T06:47:17.632Z,45.80
2019-04-21T06:51:22.734Z,45.52
2019-04-21T06:55:31.183Z,44.92
2019-04-21T06:59:31.848Z,44.58
2019-04-21T07:03:54.294Z,44.29
2019-04-21T07:08:09.271Z,43.58
2019-04-21T07:11:59.818Z,43.80
2019-04-21T07:16:15.668Z,43.27
2019-04-21T07:20:18.595Z,42.64
2019-04-21T07:24:35.527Z,42.78
2019-04-21T07:28:45.624Z,42.18
2019-04-21T07:32:49.697Z,41.55
2019-04-21T07:36:56.136Z,41.47
2019-04-21T07:40:58.734Z,41.44
2019-04-21T07:45:05.265Z,41.32
2019-04-21T07:49:40.043Z,41.21
2019-04-21T07:53:55.730Z,41.30
2019-04-21T07:57:55.980Z,40.52
2019-04-21T08:02:15.916Z,39.85
2019-04-21T08:06:25.323Z,39.36
2019-04-21T08:10:22.462Z,39.73
2019-04-21T08:14:41.616Z,39.43
2019-04-21T08:18:42.415Z,39.31
2019-04-21T08:27:01.801Z,38.06
2019-04-21T08:31:09.989Z,37.91
2019-04-21T08:39:31.521Z,36.16
2019-04-21T08:47:50.366Z,34.96
2019-04-21T08:51:53.915Z,33.28
2019-04-21T08:56:30.379Z,33.46
2019-04-21T09:00:55.194Z,33.16
2019-04-21T09:04:59.257Z,31.89
2019-04-21T09:09:11.841Z,30.01
2019-04-21T09:13:17.625Z,29.69
2019-04-21T09:17:20.786Z,29.89
2019-04-21T09:21:39.467Z,29.89
2019-04-21T09:25:47.281Z,28.59
2019-04-21T09:29:39.240Z,27.62
2019-04-21T09:33:48.403Z,27.58
2019-04-21T09:37:57.048Z,26.97
2019-04-21T09:42:02.411Z,26.00
2019-04-21T09:46:08.387Z,27.93
2019-04-21T09:50:15.414Z,26.76
2019-04-21T09:54:27.747Z,26.20
2019-04-21T09:58:37.932Z,26.91
2019-04-21T10:02:49.777Z,25.48
2019-04-21T10:06:49.629Z,27.97
2019-04-21T10:10:56.952Z,26.88
2019-04-21T10:15:04.286Z,27.50
2019-04-21T10:19:11.267Z,25.99
2019-04-21T10:23:18.003Z,26.94
2019-04-21T10:27:25.435Z,26.44
2019-04-21T10:31:32.564Z,26.43
2019-04-21T10:35:39.439Z,25.73
2019-04-21T10:39:47.528Z,26.57
2019-04-21T10:43:55.477Z,25.58
2019-04-21T10:48:03.160Z,26.19
2019-04-21T10:52:17.321Z,25.19
2019-04-21T10:56:31.497Z,24.67
2019-04-21T11:00:32.491Z,23.10
2019-04-21T11:04:41.648Z,23.55
2019-04-21T11:08:53.865Z,22.14
2019-04-21T11:12:58.726Z,22.52
2019-04-21T11:17:06.045Z,22.64
2019-04-21T11:21:13.260Z,21.86
2019-04-21T11:25:20.165Z,21.88
2019-04-21T11:29:27.001Z,21.43
2019-04-21T11:33:35.461Z,20.08
2019-04-21T11:37:42.594Z,19.73
2019-04-21T11:41:49.810Z,19.64
2019-04-21T11:45:58.051Z,20.06
2019-04-21T11:50:05.472Z,20.97
2019-04-21T11:54:12.916Z,20.65
2019-04-21T11:58:19.714Z,19.91
2019-04-21T12:02:27.583Z,20.46
2019-04-21T12:06:40.954Z,20.32
2019-04-21T12:10:42.860Z,19.43
2019-04-21T12:14:50.279Z,19.63
2019-04-21T12:18:57.123Z,19.46
2019-04-21T12:23:04.656Z,18.75
2019-04-21T12:27:12.024Z,18.81
2019-04-21T12:31:41.397Z,19.75
2019-04-21T12:35:48.278Z,20.24
2019-04-21T12:39:56.754Z,20.11
2019-04-21T12:44:04.592Z,18.71
2019-04-21T12:48:11.461Z,18.58
2019-04-21T12:52:18.239Z,18.24
2019-04-21T12:56:25.350Z,18.75
2019-04-21T13:00:33.404Z,18.30
2019-04-21T13:04:40.244Z,19.02
2019-04-21T13:08:54.530Z,18.19
2019-04-21T13:12:56.257Z,17.58
2019-04-21T13:17:03.459Z,17.28
2019-04-21T13:21:10.386Z,17.32
2019-04-21T13:25:18.101Z,17.13
2019-04-21T13:29:25.978Z,17.26
2019-04-21T13:33:33.638Z,17.43
2019-04-21T13:37:41.560Z,17.15
2019-04-21T13:42:02.844Z,17.34
2019-04-21T13:45:59.597Z,16.91
2019-04-21T13:50:08.813Z,17.39
2019-04-21T13:54:15.742Z,16.85
2019-04-21T13:58:22.533Z,16.67
2019-04-21T14:02:30.864Z,16.12
2019-04-21T14:06:38.421Z,15.97
2019-04-21T14:10:47.292Z,16.87
2019-04-21T14:14:54.478Z,16.64
2019-04-21T14:19:01.487Z,16.04
2019-04-21T14:23:15.856Z,18.03
2019-04-21T14:27:16.772Z,15.77
2019-04-21T14:31:24.167Z,16.13
2019-04-21T14:35:32.725Z,15.68
2019-04-21T14:39:50.387Z,14.87
2019-04-21T14:43:48.454Z,15.86
2019-04-21T14:48:01.435Z,15.06
2019-04-21T14:52:19.116Z,14.91
2019-04-21T14:56:27.131Z,15.34
2019-04-21T15:01:10.392Z,14.93
2019-04-21T15:05:17.611Z,15.39
2019-04-21T15:09:25.305Z,15.92
2019-04-21T15:13:32.398Z,15.37
2019-04-21T15:17:39.871Z,15.62
2019-04-21T15:21:48.121Z,15.40
2019-04-21T15:25:56.381Z,16.31
2019-04-21T15:30:04.908Z,16.36
2019-04-21T15:34:12.989Z,15.81
2019-04-21T15:38:22.227Z,15.97
2019-04-21T15:42:30.656Z,17.44
2019-04-21T15:46:37.641Z,17.30
2019-04-21T15:50:45.991Z,17.88
2019-04-21T15:54:56.916Z,17.77
2019-04-21T15:59:24.342Z,17.52
2019-04-21T16:03:31.337Z,18.31
2019-04-21T16:07:38.174Z,18.27
2019-04-21T16:11:46.095Z,18.35
2019-04-21T16:15:54.498Z,19.59
2019-04-21T16:20:02.081Z,18.55
2019-04-21T16:24:12.297Z,18.74
2019-04-21T16:28:19.351Z,18.74
2019-04-21T16:32:26.126Z,18.83
2019-04-21T16:36:33.810Z,18.69
2019-04-21T16:40:51.884Z,19.19
2019-04-21T16:44:50.253Z,19.33
2019-04-21T16:48:57.764Z,19.83
2019-04-21T16:53:14.458Z,19.49
2019-04-21T16:57:26.000Z,19.57
2019-04-21T17:01:34.189Z,19.58
2019-04-21T17:05:42.281Z,19.40
2019-04-21T17:09:50.539Z,19.89
2019-04-21T17:13:58.353Z,20.22
2019-04-21T17:18:22.800Z,19.56
2019-04-21T17:22:15.662Z,19.68
2019-04-21T17:26:23.520Z,19.72
2019-04-21T17:30:30.637Z,19.64
2019-04-21T17:34:38.895Z,19.31
2019-04-21T17:38:45.984Z,19.12
2019-04-21T17:43:01.318Z,19.03
2019-04-21T17:47:05.650Z,19.54
2019-04-21T17:51:14.843Z,19.50
2019-04-21T17:55:29.789Z,19.33
2019-04-21T18:04:06.280Z,19.69
2019-04-21T18:08:14.130Z,19.73
2019-04-21T18:12:16.611Z,19.92
2019-04-21T18:16:22.699Z,20.14
2019-04-21T18:20:23.898Z,20.19
2019-04-21T18:24:42.789Z,20.87
2019-04-21T18:28:41.397Z,21.14
2019-04-21T18:32:48.300Z,21.78
2019-04-21T18:37:04.615Z,22.51
2019-04-21T18:41:09.792Z,23.32
2019-04-21T18:46:13.230Z,23.37
2019-04-21T18:49:58.835Z,23.44
2019-04-21T18:54:29.972Z,24.28
2019-04-21T18:58:17.985Z,24.18
2019-04-21T19:02:26.252Z,24.44
2019-04-21T19:06:45.351Z,24.88
2019-04-21T19:11:01.148Z,25.17
2019-04-21T19:15:04.380Z,25.37
2019-04-21T19:23:39.500Z,25.59
2019-04-21T19:27:38.041Z,26.70
2019-04-21T19:31:49.283Z,26.22
2019-04-21T19:35:39.244Z,27.21
2019-04-21T19:40:00.410Z,27.05
2019-04-21T19:44:16.231Z,26.32
2019-04-21T19:48:22.939Z,27.25
2019-04-21T19:52:29.538Z,28.92
2019-04-21T19:56:24.111Z,26.72
2019-04-21T20:00:34.710Z,26.91
2019-04-21T20:04:50.129Z,27.29
2019-04-21T20:09:09.671Z,27.09
2019-04-21T20:13:35.278Z,27.62
2019-04-21T20:17:31.147Z,27.14
2019-04-21T20:21:20.776Z,27.74
2019-04-21T20:25:29.037Z,27.19
2019-04-21T20:29:57.931Z,28.24
2019-04-21T20:34:07.779Z,27.82
2019-04-21T20:38:09.299Z,28.18
2019-04-21T20:42:16.639Z,28.41
2019-04-21T20:46:24.690Z,28.65
2019-04-21T20:50:33.742Z,28.57
2019-04-21T20:54:45.407Z,29.37
2019-04-21T20:58:55.667Z,30.06
2019-04-21T21:03:07.451Z,29.53
2019-04-21T21:07:16.322Z,30.20
2019-04-21T21:11:15.534Z,30.56
2019-04-21T21:15:29.236Z,30.57
2019-04-21T21:19:42.428Z,31.62
2019-04-21T21:23:48.079Z,32.40
2019-04-21T21:27:51.788Z,33.14
2019-04-21T21:32:14.671Z,32.90
2019-04-21T21:36:15.216Z,33.36
2019-04-21T21:40:26.889Z,33.62
2019-04-21T21:44:21.112Z,34.07
2019-04-21T21:48:39.082Z,34.10
2019-04-21T21:52:46.519Z,34.81
2019-04-21T21:56:40.951Z,35.44
2019-04-21T22:00:56.468Z,35.73
2019-04-21T22:05:08.695Z,36.75
2019-04-21T22:09:12.496Z,37.07
2019-04-21T22:13:21.951Z,37.21
2019-04-21T22:17:44.556Z,37.45
2019-04-21T22:21:53.263Z,38.71
2019-04-21T22:25:45.807Z,39.06
2019-04-21T22:29:58.148Z,39.30
2019-04-21T22:34:05.560Z,39.71
2019-04-21T22:38:24.446Z,40.06
2019-04-21T22:42:26.588Z,40.18
2019-04-21T22:46:28.587Z,40.71
2019-04-21T22:50:38.463Z,40.78
2019-04-21T22:54:46.869Z,40.76
2019-04-21T22:58:54.912Z,41.42
2019-04-21T23:03:09.729Z,41.17
2019-04-21T23:07:14.013Z,41.31
2019-04-21T23:11:19.868Z,41.54
2019-04-21T23:15:37.272Z,41.54
2019-04-21T23:19:55.624Z,41.56
2019-04-21T23:24:05.817Z,41.34
2019-04-21T23:28:05.652Z,40.95
2019-04-21T23:32:17.271Z,40.98
2019-04-21T23:36:15.594Z,41.07
2019-04-21T23:40:23.324Z,41.23
2019-04-21T23:44:28.171Z,40.98
2019-04-21T23:48:48.695Z,40.68
2019-04-21T23:52:43.661Z,40.83
2019-04-21T23:56:51.756Z,40.88
